Time,TemperatureF,DewpointF,PressureIn,WindDirection,WindDirectionDegrees,WindSpeedMPH,WindSpeedGustMPH,Humidity,HourlyPrecipIn,Conditions,Clouds,dailyrainin,SolarRadiationWatts/m^2,SoftwareType,DateUTC
2013-06-25 00:34:00,69.0,36.0,-100.00,SSW,195,9.0,14.0,30,0.00,,,-99.99,0.000000,,2013-06-25 06:34:00,
2013-06-25 00:43:00,69.0,36.0,-100.00,SSW,196,10.0,17.0,30,0.00,,,-99.99,0.000000,,2013-06-25 06:43:00,
2013-06-25 00:52:00,69.0,36.0,-100.00,SSW,196,10.0,17.0,30,0.00,,,-99.99,0.000000,,2013-06-25 06:52:00,
2013-06-25 01:11:00,69.0,36.0,-100.00,SSW,194,8.0,12.0,30,0.00,,,-99.99,0.000000,,2013-06-25 07:11:00,
2013-06-25 01:22:00,68.0,36.0,-100.00,SSW,198,7.0,12.0,31,0.00,,,-99.99,0.000000,,2013-06-25 07:22:00,
2013-06-25 01:33:00,66.0,37.0,-100.00,SSW,205,6.0,12.0,34,0.00,,,-99.99,0.000000,,2013-06-25 07:33:00,
2013-06-25 01:43:00,64.0,39.0,-100.00,South,175,4.0,6.0,39,0.00,,,-99.99,0.000000,,2013-06-25 07:43:00,
2013-06-25 02:11:00,65.0,37.0,-100.00,South,186,4.0,6.0,36,0.00,,,-99.99,0.000000,,2013-06-25 08:11:00,
2013-06-25 02:33:00,64.0,39.0,-100.00,SW,229,3.0,3.0,40,0.00,,,-99.99,0.000000,,2013-06-25 08:33:00,
2013-06-25 03:12:00,61.0,40.0,-100.00,SSW,195,2.0,4.0,46,0.00,,,-99.99,0.000000,,2013-06-25 09:12:00,
2013-06-25 03:21:00,61.0,40.0,-100.00,SSW,195,2.0,4.0,46,0.00,,,-99.99,0.000000,,2013-06-25 09:21:00,
2013-06-25 03:33:00,61.0,42.0,-100.00,South,178,2.0,3.0,50,0.00,,,-99.99,0.000000,,2013-06-25 09:33:00,
2013-06-25 03:43:00,59.0,42.0,-100.00,NW,315,1.0,3.0,52,0.00,,,-99.99,0.000000,,2013-06-25 09:43:00,
2013-06-25 03:50:00,59.0,46.0,-100.00,SW,215,3.0,4.0,62,0.00,,,-99.99,0.000000,,2013-06-25 09:50:00,
2013-06-25 04:11:00,59.0,44.0,-100.00,SSW,202,3.0,5.0,58,0.00,,,-99.99,0.000000,,2013-06-25 10:11:00,
2013-06-25 04:21:00,59.0,46.0,-100.00,SW,215,3.0,4.0,62,0.00,,,-99.99,0.000000,,2013-06-25 10:21:00,
2013-06-25 04:33:00,59.0,46.0,-100.00,SW,215,3.0,4.0,62,0.00,,,-99.99,0.000000,,2013-06-25 10:33:00,
2013-06-25 04:42:00,59.0,46.0,-100.00,SW,215,3.0,4.0,62,0.00,,,-99.99,0.000000,,2013-06-25 10:42:00,
2013-06-25 05:22:00,53.0,41.0,-100.00,East,90,3.0,4.0,64,0.00,,,-99.99,0.000000,,2013-06-25 11:22:00,
2013-06-25 05:43:00,54.0,42.0,-100.00,ESE,112,3.0,4.0,64,0.00,,,-99.99,0.000000,,2013-06-25 11:43:00,
2013-06-25 06:11:00,54.0,45.0,-100.00,East,79,2.0,3.0,71,0.00,,,-99.99,0.000000,,2013-06-25 12:11:00,
2013-06-25 06:22:00,54.0,45.0,-100.00,ESE,121,2.0,3.0,73,0.00,,,-99.99,1.000000,,2013-06-25 12:22:00,
2013-06-25 06:33:00,53.0,45.0,-100.00,East,95,3.0,3.0,74,0.00,,,-99.99,3.000000,,2013-06-25 12:33:00,
2013-06-25 06:43:00,52.0,46.0,-100.00,South,191,1.0,3.0,78,0.00,,,-99.99,9.000000,,2013-06-25 12:43:00,
2013-06-25 07:01:00,52.0,46.0,-100.00,NE,34,2.0,4.0,80,0.00,,,-99.99,15.000000,,2013-06-25 13:01:00,
2013-06-25 07:34:00,54.0,48.0,-100.00,ESE,108,3.0,3.0,78,0.00,,,-99.99,27.000000,,2013-06-25 13:34:00,
2013-06-25 07:53:00,57.0,49.0,-100.00,East,98,3.0,4.0,74,0.00,,,-99.99,42.000000,,2013-06-25 13:53:00,
2013-06-25 08:01:00,59.0,49.0,-100.00,East,96,3.0,5.0,69,0.00,,,-99.99,173.000000,,2013-06-25 14:01:00,
2013-06-25 08:22:00,61.0,49.0,-100.00,ENE,73,3.0,4.0,65,0.00,,,-99.99,258.000000,,2013-06-25 14:22:00,
2013-06-25 08:34:00,61.0,48.0,-100.00,NE,49,2.0,4.0,62,0.00,,,-99.99,289.000000,,2013-06-25 14:34:00,
2013-06-25 08:50:00,69.0,49.0,-100.00,WNW,283,2.0,4.0,49,0.00,,,-99.99,442.000000,,2013-06-25 14:50:00,
2013-06-25 09:11:00,67.0,50.0,-100.00,WNW,293,2.0,6.0,54,0.00,,,-99.99,414.000000,,2013-06-25 15:11:00,
2013-06-25 09:22:00,69.0,49.0,-100.00,WNW,283,2.0,4.0,49,0.00,,,-99.99,442.000000,,2013-06-25 15:22:00,
2013-06-25 09:32:00,69.0,49.0,-100.00,WNW,283,2.0,4.0,49,0.00,,,-99.99,442.000000,,2013-06-25 15:32:00,
2013-06-25 09:44:00,69.0,49.0,-100.00,WNW,283,2.0,4.0,49,0.00,,,-99.99,442.000000,,2013-06-25 15:44:00,
2013-06-25 10:35:00,72.0,48.0,-100.00,SE,135,4.0,8.0,42,0.00,,,-99.99,680.000000,,2013-06-25 16:35:00,
2013-06-25 10:44:00,74.0,45.0,-100.00,SSE,166,3.0,6.0,36,0.00,,,-99.99,708.000000,,2013-06-25 16:44:00,
2013-06-25 11:11:00,75.0,48.0,-100.00,SE,139,4.0,6.0,38,0.00,,,-99.99,762.000000,,2013-06-25 17:11:00,
2013-06-25 11:22:00,76.0,48.0,-100.00,East,100,4.0,6.0,38,0.00,,,-99.99,786.000000,,2013-06-25 17:22:00,
2013-06-25 11:33:00,76.0,46.0,-100.00,SSE,165,3.0,8.0,34,0.00,,,-99.99,809.000000,,2013-06-25 17:33:00,
2013-06-25 13:11:00,76.0,39.0,-100.00,SW,222,7.0,12.0,27,0.00,,,-99.99,267.000000,,2013-06-25 19:11:00,
2013-06-25 13:22:00,79.0,40.0,-100.00,South,180,6.0,10.0,25,0.00,,,-99.99,1066.000000,,2013-06-25 19:22:00,
2013-06-25 13:33:00,81.0,39.0,-100.00,South,182,8.0,15.0,23,0.00,,,-99.99,1063.000000,,2013-06-25 19:33:00,
2013-06-25 13:44:00,82.0,38.0,-100.00,South,172,7.0,14.0,21,0.00,,,-99.99,1054.000000,,2013-06-25 19:44:00,
2013-06-25 13:50:00,83.0,43.0,-100.00,SSW,194,4.0,11.0,24,0.00,,,-99.99,1103.000000,,2013-06-25 19:50:00,
2013-06-25 14:11:00,81.0,43.0,-100.00,SSE,166,7.0,12.0,26,0.00,,,-99.99,441.000000,,2013-06-25 20:11:00,
2013-06-25 14:21:00,83.0,43.0,-100.00,SSW,194,4.0,11.0,24,0.00,,,-99.99,1103.000000,,2013-06-25 20:21:00,
2013-06-25 14:33:00,83.0,43.0,-100.00,SSW,194,4.0,11.0,24,0.00,,,-99.99,1103.000000,,2013-06-25 20:33:00,
2013-06-25 14:42:00,83.0,43.0,-100.00,SSW,194,4.0,11.0,24,0.00,,,-99.99,1103.000000,,2013-06-25 20:42:00,
2013-06-25 15:22:00,85.0,38.0,-100.00,SW,223,7.0,12.0,19,0.00,,,-99.99,998.000000,,2013-06-25 21:22:00,
2013-06-25 15:34:00,85.0,38.0,-100.00,SW,223,7.0,12.0,19,0.00,,,-99.99,998.000000,,2013-06-25 21:34:00,
2013-06-25 16:11:00,86.0,39.0,-100.00,SW,215,5.0,10.0,19,0.00,,,-99.99,985.000000,,2013-06-25 22:11:00,
2013-06-25 16:22:00,86.0,37.0,-100.00,South,182,7.0,11.0,18,0.00,,,-99.99,898.000000,,2013-06-25 22:22:00,
2013-06-25 16:42:00,87.0,38.0,-100.00,South,190,7.0,13.0,18,0.00,,,-99.99,1022.000000,,2013-06-25 22:42:00,
2013-06-25 17:10:00,88.0,37.0,-100.00,SSW,201,8.0,13.0,17,0.00,,,-99.99,829.000000,,2013-06-25 23:10:00,
2013-06-25 17:11:00,84.0,36.0,-100.00,SSW,206,7.0,11.0,18,0.00,,,-99.99,970.000000,,2013-06-25 23:11:00,
2013-06-25 17:22:00,85.0,37.0,-100.00,SW,214,6.0,12.0,18,0.00,,,-99.99,820.000000,,2013-06-25 23:22:00,
2013-06-25 17:43:00,88.0,37.0,-100.00,SSW,201,8.0,13.0,17,0.00,,,-99.99,829.000000,,2013-06-25 23:43:00,
2013-06-25 17:52:00,88.0,37.0,-100.00,SSW,201,8.0,13.0,17,0.00,,,-99.99,829.000000,,2013-06-25 23:52:00,
2013-06-25 18:01:00,88.0,37.0,-100.00,SSW,201,8.0,13.0,17,0.00,,,-99.99,829.000000,,2013-06-26 00:01:00,
2013-06-25 18:50:00,86.0,34.0,-100.00,SSW,209,6.0,12.0,16,0.00,,,-99.99,124.000000,,2013-06-26 00:50:00,
2013-06-25 19:33:00,86.0,34.0,-100.00,SSW,209,6.0,12.0,16,0.00,,,-99.99,124.000000,,2013-06-26 01:33:00,
2013-06-25 19:43:00,86.0,34.0,-100.00,SSW,209,6.0,12.0,16,0.00,,,-99.99,124.000000,,2013-06-26 01:43:00,
2013-06-25 20:43:00,77.0,45.0,-100.00,SE,130,2.0,4.0,32,0.00,,,-99.99,19.000000,,2013-06-26 02:43:00,
2013-06-25 21:11:00,72.0,46.0,-100.00,ENE,65,3.0,4.0,39,0.00,,,-99.99,6.000000,,2013-06-26 03:11:00,
2013-06-25 21:22:00,72.0,41.0,-100.00,East,87,4.0,6.0,33,0.00,,,-99.99,3.000000,,2013-06-26 03:22:00,
2013-06-25 21:33:00,73.0,38.0,-100.00,East,89,5.0,7.0,28,0.00,,,-99.99,1.000000,,2013-06-26 03:33:00,
2013-06-25 21:52:00,74.0,39.0,-100.00,SE,140,5.0,8.0,28,0.00,,,-99.99,0.000000,,2013-06-26 03:52:00,
2013-06-25 22:11:00,72.0,36.0,-100.00,SSE,162,4.0,6.0,27,0.00,,,-99.99,0.000000,,2013-06-26 04:11:00,
2013-06-25 22:22:00,72.0,37.0,-100.00,SE,136,3.0,5.0,28,0.00,,,-99.99,0.000000,,2013-06-26 04:22:00,
2013-06-25 22:33:00,70.0,39.0,-100.00,SSE,153,2.0,3.0,32,0.00,,,-99.99,0.000000,,2013-06-26 04:33:00,
2013-06-25 22:43:00,68.0,39.0,-100.00,ESE,122,2.0,3.0,35,0.00,,,-99.99,0.000000,,2013-06-26 04:43:00,
2013-06-25 23:11:00,71.0,36.0,-100.00,South,188,4.0,6.0,28,0.00,,,-99.99,0.000000,,2013-06-26 05:11:00,
2013-06-25 23:21:00,72.0,36.0,-100.00,SSW,199,5.0,9.0,27,0.00,,,-99.99,0.000000,,2013-06-26 05:21:00,
2013-06-25 23:43:00,73.0,36.0,-100.00,South,187,6.0,9.0,26,0.00,,,-99.99,0.000000,,2013-06-26 05:43:00,
2013-06-25 23:50:00,72.0,35.0,-100.00,SSW,198,7.0,9.0,26,0.00,,,-99.99,0.000000,,2013-06-26 05:50:00,
2013-06-25 23:52:00,72.0,36.0,-100.00,South,191,7.0,9.0,27,0.00,,,-99.99,0.000000,,2013-06-26 05:52:00,